| Time | Avg. Air Temp | Dew Point | Avg. Rel Humidity | Avg. 2 Min Wind Speed | Max Gust Velocity | MGV Time | MGV Direction | Avg. Spot Wind Velocity |
|---|---|---|---|---|---|---|---|---|
| 2026-05-07 19:20:00 | 6° C | -3° C | 52% | 7 km/h | 12 km/h | 19:20:00 | W | 5 km/h |
| 18:20:00 | 5° C | -3° C | 55% | 11 km/h | 15 km/h | 18:18:00 | NW | 12 km/h |
| 17:20:00 | 6° C | -6° C | 46% | 8 km/h | 17 km/h | 17:20:00 | NW | 4 km/h |
| 16:20:00 | 6° C | -4° C | 50% | 4 km/h | 7 km/h | 16:20:00 | N | 2 km/h |
| 15:20:00 | 5° C | -3° C | 53% | 6 km/h | 10 km/h | 15:20:00 | NW | 2 km/h |
| 14:20:00 | 4° C | -2° C | 63% | 14 km/h | 20 km/h | 14:18:00 | NW | 13 km/h |
| 13:20:00 | 4° C | -2° C | 64% | 7 km/h | 13 km/h | 13:17:00 | W | 9 km/h |
| 12:20:00 | 3° C | -3° C | 67% | 5 km/h | 10 km/h | 12:16:00 | NW | 5 km/h |
| 11:20:00 | 3° C | 0° C | 83% | 4 km/h | 6 km/h | 11:20:00 | N | 4 km/h |
| 10:20:00 | 1° C | 0° C | 92% | 3 km/h | 5 km/h | 10:20:00 | NE | 4 km/h |
| 09:20:00 | 1° C | -0° C | 93% | 7 km/h | 9 km/h | 09:20:00 | NW | 6 km/h |
| 08:20:00 | 0° C | 0° C | 100% | 10 km/h | 11 km/h | 08:18:00 | NW | 9 km/h |
| 07:20:00 | 1° C | 1° C | 100% | 15 km/h | 18 km/h | 07:18:00 | NW | 14 km/h |
| 06:20:00 | 1° C | 1° C | 100% | 17 km/h | 22 km/h | 06:16:00 | NW | 19 km/h |
| 05:20:00 | 2° C | 2° C | 100% | 11 km/h | 22 km/h | 05:16:00 | W | 14 km/h |
| 04:20:00 | 2° C | 2° C | 100% | 17 km/h | 21 km/h | 04:20:00 | W | 17 km/h |
| 03:20:00 | 2° C | 2° C | 100% | 22 km/h | 25 km/h | 03:20:00 | W | 22 km/h |
| 02:20:00 | 2° C | 2° C | 100% | 21 km/h | 27 km/h | 02:18:00 | W | 21 km/h |
| 01:20:00 | 3° C | 1° C | 88% | 18 km/h | 25 km/h | 01:17:00 | W | 21 km/h |
| 00:20:00 | 4° C | 1° C | 81% | 21 km/h | 24 km/h | 00:16:00 | W | 20 km/h |
| 23:20:00 | 4° C | 0° C | 78% | 26 km/h | 30 km/h | 23:19:00 | W | 23 km/h |
| 22:20:00 | 4° C | 0° C | 78% | 10 km/h | 17 km/h | 22:18:00 | W | 12 km/h |
| 21:20:00 | 4° C | 1° C | 80% | 15 km/h | 16 km/h | 21:20:00 | SW | 15 km/h |
| 20:20:00 | 2° C | 2° C | 100% | 17 km/h | 36 km/h | 20:18:00 | NE | 24 km/h |
Subpeak Weather
| Time | Avg. Air Temp | Dew Point | Avg. Rel Humidity | Avg. 2 Min Wind Speed | Max Gust Velocity | MGV Time | MGV Direction | Avg. Spot Wind Velocity |
|---|---|---|---|---|---|---|---|---|
| 2026-05-07 19:20:00 | 6° C | -3° C | 52% | 7 km/h | 12 km/h | 19:20:00 | W | 5 km/h |
| 19:15:00 | 6° C | -3° C | 52% | 0 km/h | 7 km/h | 19:11:00 | SW | 1 km/h |
| 19:10:00 | 6° C | -3° C | 52% | 8 km/h | 12 km/h | 19:06:00 | W | 8 km/h |
| 19:05:00 | 6° C | -4° C | 49% | 9 km/h | 15 km/h | 19:01:00 | W | 11 km/h |
| 19:00:00 | 6° C | -4° C | 50% | 7 km/h | 11 km/h | 19:00:00 | W | 8 km/h |
| 18:55:00 | 6° C | -3° C | 52% | 8 km/h | 13 km/h | 18:51:00 | NW | 8 km/h |
| 18:50:00 | 6° C | -4° C | 50% | 5 km/h | 12 km/h | 18:50:00 | NW | 8 km/h |
| 18:45:00 | 6° C | -4° C | 52% | 11 km/h | 18 km/h | 18:42:00 | NW | 12 km/h |
| 18:40:00 | 6° C | -4° C | 50% | 14 km/h | 18 km/h | 18:36:00 | NW | 13 km/h |
| 18:35:00 | 6° C | -4° C | 51% | 8 km/h | 15 km/h | 18:35:00 | NW | 8 km/h |
| 18:30:00 | 6° C | -3° C | 53% | 8 km/h | 14 km/h | 18:28:00 | W | 9 km/h |
| 18:25:00 | 5° C | -3° C | 56% | 9 km/h | 14 km/h | 18:23:00 | W | 10 km/h |
| 18:20:00 | 5° C | -3° C | 55% | 11 km/h | 15 km/h | 18:18:00 | NW | 12 km/h |




